sensor_id;sensor_type;location;lat;lon;timestamp;P1;durP1;ratioP1;P2;durP2;ratioP2
15114;SDS011;7658;51.456;7.622;2023-04-05T00:00:41;16.83;;;10.97;;
15114;SDS011;7658;51.456;7.622;2023-04-05T00:03:07;11.37;;;10.03;;
15114;SDS011;7658;51.456;7.622;2023-04-05T00:05:34;15.90;;;10.53;;
15114;SDS011;7658;51.456;7.622;2023-04-05T00:08:00;12.23;;;10.07;;
15114;SDS011;7658;51.456;7.622;2023-04-05T00:10:37;13.40;;;10.63;;
15114;SDS011;7658;51.456;7.622;2023-04-05T00:13:03;16.63;;;11.27;;
15114;SDS011;7658;51.456;7.622;2023-04-05T00:15:29;11.87;;;9.80;;
15114;SDS011;7658;51.456;7.622;2023-04-05T00:17:56;11.37;;;10.00;;
15114;SDS011;7658;51.456;7.622;2023-04-05T00:20:22;14.07;;;10.83;;
15114;SDS011;7658;51.456;7.622;2023-04-05T00:22:48;15.70;;;10.80;;
15114;SDS011;7658;51.456;7.622;2023-04-05T00:25:14;12.63;;;10.30;;
15114;SDS011;7658;51.456;7.622;2023-04-05T00:27:43;11.93;;;10.63;;
15114;SDS011;7658;51.456;7.622;2023-04-05T00:30:09;12.33;;;10.47;;
15114;SDS011;7658;51.456;7.622;2023-04-05T00:32:36;13.83;;;10.40;;
15114;SDS011;7658;51.456;7.622;2023-04-05T00:35:01;11.67;;;10.10;;
15114;SDS011;7658;51.456;7.622;2023-04-05T00:37:27;13.33;;;10.00;;
15114;SDS011;7658;51.456;7.622;2023-04-05T00:39:53;12.67;;;11.27;;
15114;SDS011;7658;51.456;7.622;2023-04-05T00:42:21;15.33;;;10.90;;
15114;SDS011;7658;51.456;7.622;2023-04-05T00:44:47;14.27;;;11.17;;
15114;SDS011;7658;51.456;7.622;2023-04-05T00:47:13;12.40;;;10.47;;
15114;SDS011;7658;51.456;7.622;2023-04-05T00:49:38;12.03;;;10.77;;
15114;SDS011;7658;51.456;7.622;2023-04-05T00:52:06;13.50;;;11.60;;
15114;SDS011;7658;51.456;7.622;2023-04-05T00:54:32;17.50;;;11.80;;
15114;SDS011;7658;51.456;7.622;2023-04-05T00:56:58;19.27;;;12.40;;
15114;SDS011;7658;51.456;7.622;2023-04-05T00:59:24;13.00;;;11.53;;
15114;SDS011;7658;51.456;7.622;2023-04-05T01:01:54;17.00;;;12.33;;
15114;SDS011;7658;51.456;7.622;2023-04-05T01:04:32;14.87;;;11.90;;
15114;SDS011;7658;51.456;7.622;2023-04-05T01:07:06;13.97;;;11.10;;
15114;SDS011;7658;51.456;7.622;2023-04-05T01:12:33;13.23;;;11.73;;
15114;SDS011;7658;51.456;7.622;2023-04-05T01:15:01;15.20;;;11.87;;
15114;SDS011;7658;51.456;7.622;2023-04-05T01:17:28;13.90;;;11.83;;
15114;SDS011;7658;51.456;7.622;2023-04-05T01:20:02;16.17;;;12.43;;
15114;SDS011;7658;51.456;7.622;2023-04-05T01:30:55;12.60;;;11.10;;
15114;SDS011;7658;51.456;7.622;2023-04-05T01:33:52;14.53;;;11.23;;
15114;SDS011;7658;51.456;7.622;2023-04-05T01:36:26;13.97;;;11.70;;
15114;SDS011;7658;51.456;7.622;2023-04-05T01:38:57;19.17;;;12.43;;
15114;SDS011;7658;51.456;7.622;2023-04-05T01:41:26;14.53;;;12.40;;
15114;SDS011;7658;51.456;7.622;2023-04-05T01:43:52;16.07;;;12.03;;
15114;SDS011;7658;51.456;7.622;2023-04-05T01:46:17;18.37;;;11.93;;
15114;SDS011;7658;51.456;7.622;2023-04-05T01:48:43;14.60;;;12.37;;
15114;SDS011;7658;51.456;7.622;2023-04-05T01:51:09;17.03;;;12.40;;
15114;SDS011;7658;51.456;7.622;2023-04-05T01:53:35;16.60;;;13.47;;
15114;SDS011;7658;51.456;7.622;2023-04-05T01:56:00;18.87;;;13.43;;
15114;SDS011;7658;51.456;7.622;2023-04-05T01:58:26;18.60;;;12.97;;
15114;SDS011;7658;51.456;7.622;2023-04-05T02:00:53;17.60;;;12.60;;
15114;SDS011;7658;51.456;7.622;2023-04-05T02:03:23;17.87;;;12.13;;
15114;SDS011;7658;51.456;7.622;2023-04-05T02:05:49;13.70;;;11.73;;
15114;SDS011;7658;51.456;7.622;2023-04-05T02:08:15;15.20;;;12.10;;
15114;SDS011;7658;51.456;7.622;2023-04-05T02:10:41;23.43;;;13.13;;
15114;SDS011;7658;51.456;7.622;2023-04-05T02:13:07;18.40;;;12.23;;
15114;SDS011;7658;51.456;7.622;2023-04-05T02:15:33;16.20;;;13.13;;
15114;SDS011;7658;51.456;7.622;2023-04-05T02:17:59;19.60;;;14.03;;
15114;SDS011;7658;51.456;7.622;2023-04-05T02:20:27;21.23;;;13.40;;
15114;SDS011;7658;51.456;7.622;2023-04-05T02:22:54;14.23;;;12.73;;
15114;SDS011;7658;51.456;7.622;2023-04-05T02:25:20;18.10;;;13.57;;
15114;SDS011;7658;51.456;7.622;2023-04-05T02:27:46;18.80;;;12.60;;
15114;SDS011;7658;51.456;7.622;2023-04-05T02:30:12;16.73;;;12.60;;
15114;SDS011;7658;51.456;7.622;2023-04-05T02:32:39;19.33;;;13.87;;
15114;SDS011;7658;51.456;7.622;2023-04-05T02:35:10;16.97;;;12.87;;
15114;SDS011;7658;51.456;7.622;2023-04-05T02:37:36;17.57;;;12.90;;
15114;SDS011;7658;51.456;7.622;2023-04-05T02:40:05;16.03;;;12.37;;
15114;SDS011;7658;51.456;7.622;2023-04-05T02:42:33;17.27;;;12.97;;
15114;SDS011;7658;51.456;7.622;2023-04-05T02:44:59;18.93;;;13.20;;
15114;SDS011;7658;51.456;7.622;2023-04-05T02:47:25;18.73;;;13.63;;
15114;SDS011;7658;51.456;7.622;2023-04-05T02:49:50;20.87;;;13.93;;
15114;SDS011;7658;51.456;7.622;2023-04-05T02:52:16;17.90;;;13.40;;
15114;SDS011;7658;51.456;7.622;2023-04-05T02:54:42;17.67;;;13.27;;
15114;SDS011;7658;51.456;7.622;2023-04-05T02:57:09;20.93;;;14.10;;
15114;SDS011;7658;51.456;7.622;2023-04-05T02:59:38;20.30;;;13.07;;
15114;SDS011;7658;51.456;7.622;2023-04-05T03:02:05;17.47;;;13.53;;
15114;SDS011;7658;51.456;7.622;2023-04-05T03:04:31;17.27;;;12.00;;
15114;SDS011;7658;51.456;7.622;2023-04-05T03:06:59;19.40;;;12.77;;
15114;SDS011;7658;51.456;7.622;2023-04-05T03:09:27;19.73;;;13.87;;
15114;SDS011;7658;51.456;7.622;2023-04-05T03:11:59;24.90;;;13.70;;
15114;SDS011;7658;51.456;7.622;2023-04-05T03:14:25;19.70;;;13.77;;
15114;SDS011;7658;51.456;7.622;2023-04-05T03:16:51;20.20;;;14.63;;
15114;SDS011;7658;51.456;7.622;2023-04-05T03:19:17;19.93;;;13.30;;
15114;SDS011;7658;51.456;7.622;2023-04-05T03:21:46;22.63;;;14.30;;
15114;SDS011;7658;51.456;7.622;2023-04-05T03:24:12;18.47;;;12.93;;
15114;SDS011;7658;51.456;7.622;2023-04-05T03:26:39;20.83;;;14.13;;
15114;SDS011;7658;51.456;7.622;2023-04-05T03:29:04;18.23;;;14.57;;
15114;SDS011;7658;51.456;7.622;2023-04-05T03:31:30;16.90;;;13.60;;
15114;SDS011;7658;51.456;7.622;2023-04-05T03:33:56;23.27;;;13.73;;
15114;SDS011;7658;51.456;7.622;2023-04-05T03:36:22;24.27;;;13.67;;
15114;SDS011;7658;51.456;7.622;2023-04-05T03:38:48;16.90;;;13.70;;
15114;SDS011;7658;51.456;7.622;2023-04-05T03:41:15;21.17;;;14.13;;
15114;SDS011;7658;51.456;7.622;2023-04-05T03:43:41;16.27;;;12.87;;
15114;SDS011;7658;51.456;7.622;2023-04-05T03:46:07;16.17;;;13.17;;
15114;SDS011;7658;51.456;7.622;2023-04-05T03:48:32;18.33;;;13.03;;
15114;SDS011;7658;51.456;7.622;2023-04-05T03:50:58;18.17;;;14.00;;
15114;SDS011;7658;51.456;7.622;2023-04-05T03:53:24;16.57;;;12.97;;
15114;SDS011;7658;51.456;7.622;2023-04-05T03:55:50;21.23;;;13.93;;
15114;SDS011;7658;51.456;7.622;2023-04-05T03:58:18;17.40;;;13.43;;
15114;SDS011;7658;51.456;7.622;2023-04-05T04:00:43;15.53;;;13.37;;
15114;SDS011;7658;51.456;7.622;2023-04-05T04:03:09;18.67;;;13.63;;
15114;SDS011;7658;51.456;7.622;2023-04-05T04:05:35;18.40;;;13.63;;
15114;SDS011;7658;51.456;7.622;2023-04-05T04:08:05;23.27;;;15.43;;
15114;SDS011;7658;51.456;7.622;2023-04-05T04:10:31;26.33;;;16.50;;
15114;SDS011;7658;51.456;7.622;2023-04-05T04:12:58;21.30;;;15.93;;
15114;SDS011;7658;51.456;7.622;2023-04-05T04:15:24;21.47;;;15.03;;
15114;SDS011;7658;51.456;7.622;2023-04-05T04:17:50;22.30;;;14.77;;
15114;SDS011;7658;51.456;7.622;2023-04-05T04:20:16;19.67;;;14.40;;
15114;SDS011;7658;51.456;7.622;2023-04-05T04:22:41;20.67;;;14.00;;
15114;SDS011;7658;51.456;7.622;2023-04-05T04:25:08;19.53;;;15.33;;
15114;SDS011;7658;51.456;7.622;2023-04-05T04:27:38;21.70;;;15.30;;
15114;SDS011;7658;51.456;7.622;2023-04-05T04:32:37;15.23;;;13.63;;
15114;SDS011;7658;51.456;7.622;2023-04-05T04:35:24;20.27;;;12.93;;
15114;SDS011;7658;51.456;7.622;2023-04-05T04:38:02;17.87;;;13.37;;
15114;SDS011;7658;51.456;7.622;2023-04-05T04:40:33;17.97;;;13.40;;
15114;SDS011;7658;51.456;7.622;2023-04-05T04:43:03;17.13;;;13.97;;
15114;SDS011;7658;51.456;7.622;2023-04-05T04:45:42;16.00;;;12.97;;
15114;SDS011;7658;51.456;7.622;2023-04-05T04:48:12;14.27;;;12.77;;
15114;SDS011;7658;51.456;7.622;2023-04-05T04:50:41;15.63;;;12.20;;
15114;SDS011;7658;51.456;7.622;2023-04-05T04:53:10;15.67;;;13.03;;
15114;SDS011;7658;51.456;7.622;2023-04-05T04:55:38;17.20;;;12.23;;
15114;SDS011;7658;51.456;7.622;2023-04-05T04:58:06;16.23;;;12.70;;
15114;SDS011;7658;51.456;7.622;2023-04-05T05:00:38;17.30;;;14.10;;
15114;SDS011;7658;51.456;7.622;2023-04-05T05:03:06;17.00;;;12.50;;
15114;SDS011;7658;51.456;7.622;2023-04-05T05:05:32;16.03;;;12.50;;
15114;SDS011;7658;51.456;7.622;2023-04-05T05:07:58;21.93;;;13.37;;
15114;SDS011;7658;51.456;7.622;2023-04-05T05:10:24;18.30;;;13.20;;
15114;SDS011;7658;51.456;7.622;2023-04-05T05:12:50;16.40;;;13.47;;
15114;SDS011;7658;51.456;7.622;2023-04-05T05:15:17;23.03;;;14.00;;
15114;SDS011;7658;51.456;7.622;2023-04-05T05:17:43;19.27;;;14.07;;
15114;SDS011;7658;51.456;7.622;2023-04-05T05:20:09;15.33;;;13.47;;
15114;SDS011;7658;51.456;7.622;2023-04-05T05:22:36;17.40;;;13.87;;
15114;SDS011;7658;51.456;7.622;2023-04-05T05:25:03;16.90;;;14.20;;
15114;SDS011;7658;51.456;7.622;2023-04-05T05:27:29;18.37;;;14.23;;
15114;SDS011;7658;51.456;7.622;2023-04-05T05:29:55;18.40;;;13.60;;
15114;SDS011;7658;51.456;7.622;2023-04-05T05:32:21;23.63;;;14.67;;
15114;SDS011;7658;51.456;7.622;2023-04-05T05:34:47;17.13;;;13.87;;
15114;SDS011;7658;51.456;7.622;2023-04-05T05:37:13;17.43;;;14.10;;
15114;SDS011;7658;51.456;7.622;2023-04-05T05:39:40;17.87;;;13.93;;
15114;SDS011;7658;51.456;7.622;2023-04-05T05:42:06;20.80;;;14.07;;
15114;SDS011;7658;51.456;7.622;2023-04-05T05:44:32;19.73;;;14.20;;
15114;SDS011;7658;51.456;7.622;2023-04-05T05:46:57;20.53;;;14.37;;
15114;SDS011;7658;51.456;7.622;2023-04-05T05:49:24;23.50;;;14.40;;
15114;SDS011;7658;51.456;7.622;2023-04-05T05:51:49;21.07;;;14.97;;
15114;SDS011;7658;51.456;7.622;2023-04-05T05:54:16;27.30;;;15.03;;
15114;SDS011;7658;51.456;7.622;2023-04-05T05:56:43;20.30;;;15.37;;
15114;SDS011;7658;51.456;7.622;2023-04-05T05:59:08;20.07;;;14.97;;
15114;SDS011;7658;51.456;7.622;2023-04-05T06:01:36;20.30;;;15.33;;
15114;SDS011;7658;51.456;7.622;2023-04-05T06:04:05;16.23;;;14.37;;
15114;SDS011;7658;51.456;7.622;2023-04-05T06:06:31;18.57;;;13.80;;
15114;SDS011;7658;51.456;7.622;2023-04-05T06:08:57;21.00;;;13.53;;
15114;SDS011;7658;51.456;7.622;2023-04-05T06:11:23;18.03;;;14.10;;
15114;SDS011;7658;51.456;7.622;2023-04-05T06:13:50;17.17;;;13.97;;
15114;SDS011;7658;51.456;7.622;2023-04-05T06:16:19;15.90;;;14.20;;
15114;SDS011;7658;51.456;7.622;2023-04-05T06:18:48;17.27;;;13.57;;
15114;SDS011;7658;51.456;7.622;2023-04-05T06:21:14;18.60;;;14.30;;
15114;SDS011;7658;51.456;7.622;2023-04-05T06:23:40;20.20;;;13.73;;
15114;SDS011;7658;51.456;7.622;2023-04-05T06:26:06;18.50;;;13.77;;
15114;SDS011;7658;51.456;7.622;2023-04-05T06:28:33;16.60;;;13.30;;
15114;SDS011;7658;51.456;7.622;2023-04-05T06:30:58;18.50;;;13.73;;
15114;SDS011;7658;51.456;7.622;2023-04-05T06:33:24;20.83;;;12.97;;
15114;SDS011;7658;51.456;7.622;2023-04-05T06:35:50;16.77;;;13.40;;
15114;SDS011;7658;51.456;7.622;2023-04-05T06:38:16;17.77;;;13.27;;
15114;SDS011;7658;51.456;7.622;2023-04-05T06:40:42;16.93;;;12.83;;
15114;SDS011;7658;51.456;7.622;2023-04-05T06:43:08;16.13;;;13.10;;
15114;SDS011;7658;51.456;7.622;2023-04-05T06:45:37;15.03;;;12.43;;
15114;SDS011;7658;51.456;7.622;2023-04-05T06:48:04;15.40;;;12.97;;
15114;SDS011;7658;51.456;7.622;2023-04-05T06:50:30;19.30;;;13.40;;
15114;SDS011;7658;51.456;7.622;2023-04-05T06:52:57;16.90;;;13.67;;
15114;SDS011;7658;51.456;7.622;2023-04-05T06:55:23;15.90;;;12.07;;
15114;SDS011;7658;51.456;7.622;2023-04-05T06:58:03;16.00;;;11.20;;
15114;SDS011;7658;51.456;7.622;2023-04-05T07:01:00;16.80;;;12.20;;
15114;SDS011;7658;51.456;7.622;2023-04-05T07:03:28;14.13;;;12.07;;
15114;SDS011;7658;51.456;7.622;2023-04-05T07:06:15;18.00;;;12.70;;
15114;SDS011;7658;51.456;7.622;2023-04-05T07:08:53;18.20;;;12.13;;
15114;SDS011;7658;51.456;7.622;2023-04-05T07:11:24;16.73;;;12.03;;
15114;SDS011;7658;51.456;7.622;2023-04-05T07:14:01;14.53;;;12.17;;
15114;SDS011;7658;51.456;7.622;2023-04-05T07:16:43;16.13;;;12.07;;
15114;SDS011;7658;51.456;7.622;2023-04-05T07:19:23;16.60;;;11.70;;
15114;SDS011;7658;51.456;7.622;2023-04-05T07:21:51;14.50;;;11.50;;
15114;SDS011;7658;51.456;7.622;2023-04-05T07:24:28;16.53;;;11.60;;
15114;SDS011;7658;51.456;7.622;2023-04-05T07:27:19;15.70;;;12.13;;
15114;SDS011;7658;51.456;7.622;2023-04-05T07:29:46;18.17;;;12.77;;
15114;SDS011;7658;51.456;7.622;2023-04-05T07:32:12;18.43;;;12.27;;
15114;SDS011;7658;51.456;7.622;2023-04-05T07:34:38;13.73;;;12.13;;
15114;SDS011;7658;51.456;7.622;2023-04-05T07:37:07;15.60;;;11.97;;
15114;SDS011;7658;51.456;7.622;2023-04-05T07:39:34;14.43;;;11.40;;
15114;SDS011;7658;51.456;7.622;2023-04-05T07:42:12;12.57;;;11.27;;
15114;SDS011;7658;51.456;7.622;2023-04-05T07:44:39;15.40;;;10.80;;
15114;SDS011;7658;51.456;7.622;2023-04-05T07:47:21;15.23;;;10.73;;
15114;SDS011;7658;51.456;7.622;2023-04-05T07:49:54;13.90;;;11.53;;
15114;SDS011;7658;51.456;7.622;2023-04-05T07:52:24;16.53;;;12.13;;
15114;SDS011;7658;51.456;7.622;2023-04-05T07:54:56;19.30;;;11.30;;
15114;SDS011;7658;51.456;7.622;2023-04-05T07:57:22;14.73;;;11.23;;
15114;SDS011;7658;51.456;7.622;2023-04-05T07:59:49;16.33;;;10.70;;
15114;SDS011;7658;51.456;7.622;2023-04-05T08:02:19;14.60;;;10.83;;
15114;SDS011;7658;51.456;7.622;2023-04-05T08:04:45;16.73;;;11.60;;
15114;SDS011;7658;51.456;7.622;2023-04-05T08:07:17;16.20;;;11.43;;
15114;SDS011;7658;51.456;7.622;2023-04-05T08:09:45;11.00;;;9.87;;
15114;SDS011;7658;51.456;7.622;2023-04-05T08:12:11;15.57;;;10.37;;
15114;SDS011;7658;51.456;7.622;2023-04-05T08:14:38;14.23;;;10.63;;
15114;SDS011;7658;51.456;7.622;2023-04-05T08:17:07;15.80;;;10.97;;
15114;SDS011;7658;51.456;7.622;2023-04-05T08:19:36;13.70;;;10.00;;
15114;SDS011;7658;51.456;7.622;2023-04-05T08:22:03;14.53;;;11.10;;
15114;SDS011;7658;51.456;7.622;2023-04-05T08:24:28;11.47;;;10.23;;
15114;SDS011;7658;51.456;7.622;2023-04-05T08:26:54;11.03;;;8.83;;
15114;SDS011;7658;51.456;7.622;2023-04-05T08:29:20;12.13;;;8.63;;
15114;SDS011;7658;51.456;7.622;2023-04-05T08:31:46;9.53;;;8.00;;
15114;SDS011;7658;51.456;7.622;2023-04-05T08:34:11;7.80;;;6.83;;
15114;SDS011;7658;51.456;7.622;2023-04-05T08:36:37;9.48;;;7.18;;
15114;SDS011;7658;51.456;7.622;2023-04-05T08:39:03;7.63;;;6.93;;
15114;SDS011;7658;51.456;7.622;2023-04-05T08:41:33;7.70;;;6.18;;
15114;SDS011;7658;51.456;7.622;2023-04-05T08:44:04;7.30;;;6.60;;
15114;SDS011;7658;51.456;7.622;2023-04-05T08:46:32;7.20;;;6.15;;
15114;SDS011;7658;51.456;7.622;2023-04-05T08:48:59;8.88;;;6.00;;
15114;SDS011;7658;51.456;7.622;2023-04-05T08:51:32;7.53;;;6.25;;
15114;SDS011;7658;51.456;7.622;2023-04-05T08:54:00;10.77;;;6.25;;
15114;SDS011;7658;51.456;7.622;2023-04-05T08:56:26;7.43;;;6.30;;
15114;SDS011;7658;51.456;7.622;2023-04-05T08:58:58;8.50;;;6.22;;
15114;SDS011;7658;51.456;7.622;2023-04-05T09:01:26;6.95;;;5.82;;
15114;SDS011;7658;51.456;7.622;2023-04-05T09:04:04;6.75;;;6.07;;
15114;SDS011;7658;51.456;7.622;2023-04-05T09:06:32;7.05;;;6.45;;
15114;SDS011;7658;51.456;7.622;2023-04-05T09:08:59;9.43;;;6.40;;
15114;SDS011;7658;51.456;7.622;2023-04-05T09:11:29;8.00;;;6.43;;
15114;SDS011;7658;51.456;7.622;2023-04-05T09:13:56;7.00;;;6.28;;
15114;SDS011;7658;51.456;7.622;2023-04-05T09:16:22;9.23;;;6.95;;
15114;SDS011;7658;51.456;7.622;2023-04-05T09:18:49;6.95;;;5.97;;
15114;SDS011;7658;51.456;7.622;2023-04-05T09:21:15;9.57;;;6.60;;
15114;SDS011;7658;51.456;7.622;2023-04-05T09:23:49;7.47;;;6.78;;
15114;SDS011;7658;51.456;7.622;2023-04-05T09:26:21;9.10;;;6.82;;
15114;SDS011;7658;51.456;7.622;2023-04-05T09:28:48;8.38;;;6.60;;
15114;SDS011;7658;51.456;7.622;2023-04-05T09:31:33;8.30;;;6.82;;
15114;SDS011;7658;51.456;7.622;2023-04-05T09:34:04;9.65;;;6.55;;
15114;SDS011;7658;51.456;7.622;2023-04-05T09:36:33;9.25;;;6.70;;
15114;SDS011;7658;51.456;7.622;2023-04-05T09:39:06;11.23;;;7.20;;
15114;SDS011;7658;51.456;7.622;2023-04-05T09:41:34;8.20;;;6.50;;
15114;SDS011;7658;51.456;7.622;2023-04-05T09:44:00;7.35;;;6.35;;
15114;SDS011;7658;51.456;7.622;2023-04-05T09:46:30;8.77;;;6.82;;
15114;SDS011;7658;51.456;7.622;2023-04-05T09:48:58;7.82;;;6.95;;
15114;SDS011;7658;51.456;7.622;2023-04-05T09:51:34;8.18;;;7.13;;
15114;SDS011;7658;51.456;7.622;2023-04-05T09:56:32;9.68;;;7.20;;
15114;SDS011;7658;51.456;7.622;2023-04-05T09:59:09;10.82;;;7.80;;
15114;SDS011;7658;51.456;7.622;2023-04-05T10:01:37;9.80;;;8.15;;
15114;SDS011;7658;51.456;7.622;2023-04-05T10:04:07;10.70;;;8.03;;
15114;SDS011;7658;51.456;7.622;2023-04-05T10:09:05;9.97;;;7.60;;
15114;SDS011;7658;51.456;7.622;2023-04-05T10:11:33;11.27;;;8.13;;
15114;SDS011;7658;51.456;7.622;2023-04-05T10:14:00;9.97;;;7.53;;
15114;SDS011;7658;51.456;7.622;2023-04-05T10:16:52;10.00;;;7.60;;
15114;SDS011;7658;51.456;7.622;2023-04-05T10:19:48;9.80;;;7.33;;
15114;SDS011;7658;51.456;7.622;2023-04-05T10:22:19;9.13;;;7.33;;
15114;SDS011;7658;51.456;7.622;2023-04-05T10:24:55;8.23;;;7.30;;
15114;SDS011;7658;51.456;7.622;2023-04-05T10:27:50;10.73;;;8.20;;
15114;SDS011;7658;51.456;7.622;2023-04-05T10:30:22;8.20;;;7.37;;
15114;SDS011;7658;51.456;7.622;2023-04-05T10:36:04;10.90;;;7.73;;
15114;SDS011;7658;51.456;7.622;2023-04-05T10:38:57;9.17;;;7.67;;
15114;SDS011;7658;51.456;7.622;2023-04-05T10:41:41;9.37;;;7.70;;
15114;SDS011;7658;51.456;7.622;2023-04-05T10:44:13;8.73;;;7.83;;
15114;SDS011;7658;51.456;7.622;2023-04-05T10:46:41;12.30;;;7.53;;
15114;SDS011;7658;51.456;7.622;2023-04-05T10:52:00;10.63;;;8.23;;
15114;SDS011;7658;51.456;7.622;2023-04-05T10:54:28;10.93;;;8.10;;
15114;SDS011;7658;51.456;7.622;2023-04-05T10:56:57;9.13;;;7.77;;
15114;SDS011;7658;51.456;7.622;2023-04-05T10:59:44;11.40;;;7.80;;
15114;SDS011;7658;51.456;7.622;2023-04-05T11:02:11;12.40;;;8.73;;
15114;SDS011;7658;51.456;7.622;2023-04-05T11:04:39;10.50;;;7.80;;
15114;SDS011;7658;51.456;7.622;2023-04-05T11:09:55;9.20;;;7.87;;
15114;SDS011;7658;51.456;7.622;2023-04-05T11:18:07;8.38;;;7.47;;
15114;SDS011;7658;51.456;7.622;2023-04-05T11:20:40;9.73;;;7.97;;
15114;SDS011;7658;51.456;7.622;2023-04-05T11:23:31;9.32;;;7.93;;
15114;SDS011;7658;51.456;7.622;2023-04-05T11:26:06;8.93;;;7.72;;
15114;SDS011;7658;51.456;7.622;2023-04-05T11:28:35;8.95;;;8.05;;
15114;SDS011;7658;51.456;7.622;2023-04-05T11:31:14;9.57;;;8.00;;
15114;SDS011;7658;51.456;7.622;2023-04-05T11:42:05;10.52;;;8.20;;
15114;SDS011;7658;51.456;7.622;2023-04-05T11:44:40;10.90;;;8.93;;
15114;SDS011;7658;51.456;7.622;2023-04-05T11:47:06;8.77;;;7.43;;
15114;SDS011;7658;51.456;7.622;2023-04-05T11:49:33;10.10;;;7.97;;
15114;SDS011;7658;51.456;7.622;2023-04-05T11:52:08;10.13;;;8.00;;
15114;SDS011;7658;51.456;7.622;2023-04-05T11:54:41;11.52;;;8.05;;
15114;SDS011;7658;51.456;7.622;2023-04-05T11:57:11;11.85;;;8.13;;
15114;SDS011;7658;51.456;7.622;2023-04-05T11:59:38;9.82;;;7.93;;
15114;SDS011;7658;51.456;7.622;2023-04-05T12:02:04;12.10;;;8.00;;
15114;SDS011;7658;51.456;7.622;2023-04-05T12:04:32;9.70;;;7.93;;
15114;SDS011;7658;51.456;7.622;2023-04-05T12:07:12;10.18;;;7.70;;
15114;SDS011;7658;51.456;7.622;2023-04-05T12:09:58;11.07;;;7.50;;
15114;SDS011;7658;51.456;7.622;2023-04-05T12:12:25;7.97;;;7.10;;
15114;SDS011;7658;51.456;7.622;2023-04-05T12:14:50;10.18;;;8.35;;
15114;SDS011;7658;51.456;7.622;2023-04-05T12:17:36;10.43;;;8.05;;
15114;SDS011;7658;51.456;7.622;2023-04-05T12:20:02;9.45;;;8.18;;
15114;SDS011;7658;51.456;7.622;2023-04-05T12:22:29;10.88;;;7.88;;
15114;SDS011;7658;51.456;7.622;2023-04-05T12:24:55;8.52;;;7.47;;
15114;SDS011;7658;51.456;7.622;2023-04-05T12:27:21;11.10;;;7.95;;
15114;SDS011;7658;51.456;7.622;2023-04-05T12:30:29;8.82;;;7.70;;
15114;SDS011;7658;51.456;7.622;2023-04-05T12:32:41;8.23;;;7.22;;
15114;SDS011;7658;51.456;7.622;2023-04-05T12:35:11;12.32;;;7.72;;
15114;SDS011;7658;51.456;7.622;2023-04-05T12:37:40;9.88;;;7.78;;
15114;SDS011;7658;51.456;7.622;2023-04-05T12:40:06;10.00;;;7.57;;
15114;SDS011;7658;51.456;7.622;2023-04-05T12:42:33;10.15;;;8.18;;
15114;SDS011;7658;51.456;7.622;2023-04-05T12:45:04;11.65;;;8.40;;
15114;SDS011;7658;51.456;7.622;2023-04-05T12:47:46;10.77;;;8.18;;
15114;SDS011;7658;51.456;7.622;2023-04-05T12:50:35;10.10;;;8.45;;
15114;SDS011;7658;51.456;7.622;2023-04-05T12:53:07;9.73;;;7.88;;
15114;SDS011;7658;51.456;7.622;2023-04-05T12:55:37;10.98;;;8.02;;
15114;SDS011;7658;51.456;7.622;2023-04-05T12:58:07;11.93;;;8.48;;
15114;SDS011;7658;51.456;7.622;2023-04-05T13:00:33;10.75;;;8.15;;
15114;SDS011;7658;51.456;7.622;2023-04-05T13:02:59;9.38;;;7.82;;
15114;SDS011;7658;51.456;7.622;2023-04-05T13:05:25;9.02;;;8.10;;
15114;SDS011;7658;51.456;7.622;2023-04-05T13:07:52;10.93;;;7.90;;
15114;SDS011;7658;51.456;7.622;2023-04-05T13:10:19;11.45;;;7.97;;
15114;SDS011;7658;51.456;7.622;2023-04-05T13:12:47;10.18;;;7.68;;
15114;SDS011;7658;51.456;7.622;2023-04-05T13:15:14;11.10;;;8.35;;
15114;SDS011;7658;51.456;7.622;2023-04-05T13:17:41;11.82;;;7.65;;
15114;SDS011;7658;51.456;7.622;2023-04-05T13:20:07;11.32;;;8.10;;
15114;SDS011;7658;51.456;7.622;2023-04-05T13:22:34;11.07;;;8.18;;
15114;SDS011;7658;51.456;7.622;2023-04-05T13:24:59;10.68;;;8.02;;
15114;SDS011;7658;51.456;7.622;2023-04-05T13:27:25;8.48;;;7.57;;
15114;SDS011;7658;51.456;7.622;2023-04-05T13:29:51;11.35;;;7.80;;
15114;SDS011;7658;51.456;7.622;2023-04-05T13:32:17;9.20;;;7.82;;
15114;SDS011;7658;51.456;7.622;2023-04-05T13:34:43;9.48;;;7.30;;
15114;SDS011;7658;51.456;7.622;2023-04-05T13:37:09;9.95;;;7.47;;
15114;SDS011;7658;51.456;7.622;2023-04-05T13:39:35;8.57;;;7.20;;
15114;SDS011;7658;51.456;7.622;2023-04-05T13:42:01;10.35;;;7.30;;
15114;SDS011;7658;51.456;7.622;2023-04-05T13:44:27;9.30;;;7.35;;
15114;SDS011;7658;51.456;7.622;2023-04-05T13:46:53;10.95;;;7.55;;
15114;SDS011;7658;51.456;7.622;2023-04-05T13:49:18;8.43;;;6.97;;
15114;SDS011;7658;51.456;7.622;2023-04-05T13:51:44;11.07;;;7.43;;
15114;SDS011;7658;51.456;7.622;2023-04-05T13:54:10;14.38;;;7.43;;
15114;SDS011;7658;51.456;7.622;2023-04-05T13:56:36;7.68;;;6.88;;
15114;SDS011;7658;51.456;7.622;2023-04-05T13:59:02;10.13;;;7.45;;
15114;SDS011;7658;51.456;7.622;2023-04-05T14:01:28;12.15;;;7.97;;
15114;SDS011;7658;51.456;7.622;2023-04-05T14:03:54;11.93;;;6.90;;
15114;SDS011;7658;51.456;7.622;2023-04-05T14:06:20;8.77;;;6.75;;
15114;SDS011;7658;51.456;7.622;2023-04-05T14:08:46;9.88;;;6.75;;
15114;SDS011;7658;51.456;7.622;2023-04-05T14:11:12;8.00;;;7.05;;
15114;SDS011;7658;51.456;7.622;2023-04-05T14:13:38;12.45;;;7.60;;
15114;SDS011;7658;51.456;7.622;2023-04-05T14:16:04;10.75;;;7.13;;
15114;SDS011;7658;51.456;7.622;2023-04-05T14:18:30;11.77;;;7.50;;
15114;SDS011;7658;51.456;7.622;2023-04-05T14:20:56;9.73;;;6.85;;
15114;SDS011;7658;51.456;7.622;2023-04-05T14:23:22;9.18;;;6.88;;
15114;SDS011;7658;51.456;7.622;2023-04-05T14:25:48;8.65;;;7.00;;
15114;SDS011;7658;51.456;7.622;2023-04-05T14:28:13;7.43;;;6.43;;
15114;SDS011;7658;51.456;7.622;2023-04-05T14:30:39;7.68;;;6.82;;
15114;SDS011;7658;51.456;7.622;2023-04-05T14:33:05;7.93;;;6.63;;
15114;SDS011;7658;51.456;7.622;2023-04-05T14:35:31;9.32;;;6.57;;
15114;SDS011;7658;51.456;7.622;2023-04-05T14:37:57;6.93;;;6.15;;
15114;SDS011;7658;51.456;7.622;2023-04-05T14:40:23;8.50;;;6.97;;
15114;SDS011;7658;51.456;7.622;2023-04-05T14:42:48;9.98;;;6.85;;
15114;SDS011;7658;51.456;7.622;2023-04-05T14:45:14;8.98;;;6.13;;
15114;SDS011;7658;51.456;7.622;2023-04-05T14:47:40;7.78;;;6.88;;
15114;SDS011;7658;51.456;7.622;2023-04-05T14:50:06;9.15;;;6.60;;
15114;SDS011;7658;51.456;7.622;2023-04-05T14:52:32;9.73;;;6.70;;
15114;SDS011;7658;51.456;7.622;2023-04-05T14:54:58;6.70;;;6.00;;
15114;SDS011;7658;51.456;7.622;2023-04-05T14:57:24;7.45;;;6.20;;
15114;SDS011;7658;51.456;7.622;2023-04-05T14:59:50;7.68;;;6.35;;
15114;SDS011;7658;51.456;7.622;2023-04-05T15:02:16;9.95;;;6.75;;
15114;SDS011;7658;51.456;7.622;2023-04-05T15:04:42;8.70;;;6.30;;
15114;SDS011;7658;51.456;7.622;2023-04-05T15:07:07;9.73;;;6.43;;
15114;SDS011;7658;51.456;7.622;2023-04-05T15:09:33;10.43;;;7.15;;
15114;SDS011;7658;51.456;7.622;2023-04-05T15:12:00;8.52;;;6.90;;
15114;SDS011;7658;51.456;7.622;2023-04-05T15:14:26;8.95;;;6.70;;
15114;SDS011;7658;51.456;7.622;2023-04-05T15:16:52;8.00;;;6.40;;
15114;SDS011;7658;51.456;7.622;2023-04-05T15:19:18;9.95;;;6.50;;
15114;SDS011;7658;51.456;7.622;2023-04-05T15:21:45;7.95;;;6.05;;
15114;SDS011;7658;51.456;7.622;2023-04-05T15:24:11;8.77;;;6.35;;
15114;SDS011;7658;51.456;7.622;2023-04-05T15:26:37;8.60;;;6.30;;
15114;SDS011;7658;51.456;7.622;2023-04-05T15:29:04;8.88;;;6.38;;
15114;SDS011;7658;51.456;7.622;2023-04-05T15:31:32;9.55;;;6.32;;
15114;SDS011;7658;51.456;7.622;2023-04-05T15:33:58;9.23;;;6.45;;